createdAt,value
2022-11-05T00:00:37.695Z,8.57
2022-11-05T00:03:30.029Z,10.57
2022-11-05T00:06:20.049Z,9.90
2022-11-05T00:09:06.796Z,10.68
2022-11-05T00:11:54.210Z,10.02
2022-11-05T00:14:40.728Z,9.88
2022-11-05T00:17:09.911Z,9.88
2022-11-05T00:19:39.096Z,10.25
2022-11-05T00:22:27.057Z,9.98
2022-11-05T00:25:13.544Z,9.73
2022-11-05T00:27:42.808Z,10.32
2022-11-05T00:30:13.983Z,9.38
2022-11-05T00:32:43.040Z,9.90
2022-11-05T00:35:12.376Z,10.73
2022-11-05T00:37:48.738Z,10.63
2022-11-05T00:40:19.637Z,10.65
2022-11-05T00:43:06.193Z,10.40
2022-11-05T00:45:35.639Z,9.80
2022-11-05T00:48:33.751Z,11.15
2022-11-05T00:51:03.151Z,10.43
2022-11-05T00:53:33.549Z,11.43
2022-11-05T00:56:03.342Z,11.27
2022-11-05T00:58:32.385Z,11.10
2022-11-05T01:01:03.007Z,10.65
2022-11-05T01:03:33.887Z,11.77
2022-11-05T01:06:09.416Z,12.57
2022-11-05T01:08:40.756Z,11.15
2022-11-05T01:11:12.085Z,10.98
2022-11-05T01:13:41.719Z,10.93
2022-11-05T01:16:12.029Z,11.70
2022-11-05T01:18:41.215Z,10.40
2022-11-05T01:21:15.873Z,11.02
2022-11-05T01:23:46.494Z,12.38
2022-11-05T01:26:15.951Z,11.25
2022-11-05T01:28:45.002Z,11.02
2022-11-05T01:31:14.293Z,10.80
2022-11-05T01:33:43.233Z,11.20
2022-11-05T01:36:12.706Z,10.82
2022-11-05T01:38:41.911Z,11.25
2022-11-05T01:41:12.796Z,11.68
2022-11-05T01:43:50.172Z,9.82
2022-11-05T01:46:23.215Z,10.65
2022-11-05T01:49:00.074Z,12.85
2022-11-05T01:51:32.421Z,11.25
2022-11-05T01:54:04.165Z,11.88
2022-11-05T01:56:38.489Z,11.90
2022-11-05T01:59:12.699Z,10.93
2022-11-05T02:01:42.330Z,11.80
2022-11-05T02:04:16.435Z,10.65
2022-11-05T02:06:47.167Z,9.52
2022-11-05T02:09:23.377Z,10.63
2022-11-05T02:11:54.166Z,9.95
2022-11-05T02:14:23.282Z,9.50
2022-11-05T02:16:57.685Z,9.75
2022-11-05T02:20:09.553Z,11.07
2022-11-05T02:23:21.609Z,8.98
2022-11-05T02:26:36.578Z,9.48
2022-11-05T02:29:37.137Z,8.90
2022-11-05T02:32:16.839Z,9.63
2022-11-05T02:34:56.761Z,8.98
2022-11-05T02:40:07.166Z,9.27
2022-11-05T02:42:44.814Z,10.23
2022-11-05T02:45:26.895Z,9.75
2022-11-05T02:48:08.832Z,11.07
2022-11-05T02:50:49.021Z,10.60
2022-11-05T02:53:26.149Z,10.82
2022-11-05T02:56:00.452Z,9.43
2022-11-05T02:58:30.577Z,10.07
2022-11-05T03:01:02.240Z,11.90
2022-11-05T03:03:36.606Z,11.63
2022-11-05T03:06:33.477Z,11.55
2022-11-05T03:09:20.955Z,11.75
2022-11-05T03:12:03.325Z,10.52
2022-11-05T03:14:44.643Z,12.05
2022-11-05T03:17:20.627Z,11.68
2022-11-05T03:20:03.012Z,12.63
2022-11-05T03:22:38.602Z,12.20
2022-11-05T03:25:13.811Z,11.68
2022-11-05T03:27:48.400Z,11.95
2022-11-05T03:31:16.540Z,12.02
2022-11-05T03:33:47.779Z,11.98
2022-11-05T03:36:24.542Z,10.32
2022-11-05T03:38:57.391Z,10.93
2022-11-05T03:41:29.475Z,11.43
2022-11-05T03:44:04.330Z,12.05
2022-11-05T03:46:38.163Z,11.70
2022-11-05T03:49:12.820Z,11.98
2022-11-05T03:51:48.066Z,13.75
2022-11-05T03:54:17.839Z,12.68
2022-11-05T03:56:56.066Z,11.35
2022-11-05T03:59:26.239Z,12.83
2022-11-05T04:01:56.049Z,13.30
2022-11-05T04:04:25.581Z,12.68
2022-11-05T04:07:13.313Z,13.57
2022-11-05T04:10:00.256Z,12.95
2022-11-05T04:12:46.672Z,12.55
2022-11-05T04:15:16.017Z,13.32
2022-11-05T04:17:43.978Z,13.88
2022-11-05T04:20:30.809Z,14.25
2022-11-05T04:23:19.802Z,13.30
2022-11-05T04:25:49.125Z,13.45
2022-11-05T04:28:18.419Z,13.70
2022-11-05T04:33:17.126Z,14.63
2022-11-05T04:35:48.009Z,13.40
2022-11-05T04:38:20.402Z,14.63
2022-11-05T04:40:50.458Z,15.65
2022-11-05T04:43:20.988Z,15.18
2022-11-05T04:45:50.584Z,14.63
2022-11-05T04:48:19.549Z,16.05
2022-11-05T04:50:48.877Z,14.57
2022-11-05T04:53:19.290Z,12.38
2022-11-05T04:55:48.509Z,13.70
2022-11-05T04:58:17.725Z,13.43
2022-11-05T05:00:47.070Z,15.02
2022-11-05T05:03:16.349Z,12.57
2022-11-05T05:05:45.679Z,13.48
2022-11-05T05:08:14.774Z,14.13
2022-11-05T05:10:45.475Z,14.32
2022-11-05T05:13:14.596Z,14.30
2022-11-05T05:15:44.005Z,14.48
2022-11-05T05:18:13.028Z,17.17
2022-11-05T05:20:59.357Z,14.32
2022-11-05T05:23:28.662Z,13.38
2022-11-05T05:26:00.833Z,13.38
2022-11-05T05:28:29.987Z,14.55
2022-11-05T05:31:01.260Z,15.85
2022-11-05T05:33:30.327Z,13.95
2022-11-05T05:36:00.116Z,13.77
2022-11-05T05:41:02.550Z,13.02
2022-11-05T05:43:32.537Z,12.82
2022-11-05T05:46:04.513Z,12.98
2022-11-05T05:48:33.544Z,12.20
2022-11-05T05:51:03.214Z,13.25
2022-11-05T05:53:33.015Z,14.50
2022-11-05T05:56:04.618Z,14.13
2022-11-05T05:58:36.371Z,15.82
2022-11-05T06:01:11.000Z,16.52
2022-11-05T06:03:43.595Z,15.30
2022-11-05T06:06:19.809Z,15.32
2022-11-05T06:08:49.328Z,14.07
2022-11-05T06:13:48.935Z,14.88
2022-11-05T06:16:19.577Z,17.00
2022-11-05T06:18:49.069Z,15.60
2022-11-05T06:23:48.413Z,14.35
2022-11-05T06:26:20.132Z,13.75
2022-11-05T06:28:49.491Z,14.70
2022-11-05T06:33:47.859Z,13.10
2022-11-05T06:36:18.871Z,13.65
2022-11-05T06:38:48.088Z,14.85
2022-11-05T06:41:17.511Z,15.57
2022-11-05T06:43:48.221Z,14.88
2022-11-05T06:46:17.550Z,14.70
2022-11-05T06:48:46.596Z,15.48
2022-11-05T06:51:16.043Z,15.05
2022-11-05T06:53:45.174Z,14.63
2022-11-05T06:56:14.743Z,15.38
2022-11-05T06:58:43.850Z,15.95
2022-11-05T07:01:14.787Z,16.05
2022-11-05T07:03:45.262Z,17.48
2022-11-05T07:06:14.691Z,17.15
2022-11-05T07:08:43.749Z,15.88
2022-11-05T07:11:13.168Z,16.23
2022-11-05T07:13:42.512Z,16.55
2022-11-05T07:16:13.128Z,15.90
2022-11-05T07:18:42.352Z,16.45
2022-11-05T07:21:11.622Z,15.80
2022-11-05T07:23:40.881Z,15.70
2022-11-05T07:26:10.083Z,13.93
2022-11-05T07:28:39.204Z,14.15
2022-11-05T07:31:08.473Z,15.75
2022-11-05T07:33:38.887Z,16.58
2022-11-05T07:36:09.256Z,14.35
2022-11-05T07:38:38.325Z,16.23
2022-11-05T07:41:07.634Z,15.82
2022-11-05T07:43:36.631Z,16.42
2022-11-05T07:46:11.179Z,16.25
2022-11-05T07:48:44.094Z,16.17
2022-11-05T07:51:13.355Z,14.75
2022-11-05T07:53:45.310Z,14.60
2022-11-05T07:56:15.263Z,14.95
2022-11-05T07:58:44.343Z,14.88
2022-11-05T08:01:15.408Z,13.82
2022-11-05T08:06:14.957Z,13.13
2022-11-05T08:08:43.936Z,13.27
2022-11-05T08:11:13.444Z,13.82
2022-11-05T08:13:44.069Z,16.00
2022-11-05T08:16:13.414Z,15.35
2022-11-05T08:18:42.492Z,17.20
2022-11-05T08:21:13.225Z,16.35
2022-11-05T08:23:43.139Z,15.65
2022-11-05T08:26:12.554Z,16.90
2022-11-05T08:28:41.521Z,18.63
2022-11-05T08:31:10.852Z,18.23
2022-11-05T08:33:39.828Z,17.67
2022-11-05T08:36:09.904Z,20.98
2022-11-05T08:41:09.706Z,17.42
2022-11-05T08:43:38.823Z,16.83
2022-11-05T08:46:08.592Z,15.98
2022-11-05T08:48:37.544Z,17.52
2022-11-05T08:51:07.166Z,15.38
2022-11-05T08:53:36.568Z,14.65
2022-11-05T08:56:07.623Z,15.95
2022-11-05T08:58:37.649Z,14.77
2022-11-05T09:01:07.276Z,14.20
2022-11-05T09:03:36.570Z,14.57
2022-11-05T09:06:06.114Z,17.23
2022-11-05T09:08:35.271Z,13.73
2022-11-05T09:11:04.475Z,13.13
2022-11-05T09:13:35.637Z,12.75
2022-11-05T09:16:05.632Z,15.05
2022-11-05T09:18:35.717Z,15.50
2022-11-05T09:21:04.952Z,16.30
2022-11-05T09:23:33.942Z,13.30
2022-11-05T09:26:03.198Z,15.23
2022-11-05T09:28:32.488Z,14.77
2022-11-05T09:33:35.737Z,13.88
2022-11-05T09:36:06.000Z,14.95
2022-11-05T09:38:35.987Z,14.68
2022-11-05T09:41:07.857Z,12.00
2022-11-05T09:43:41.969Z,11.55
2022-11-05T09:46:19.070Z,12.18
2022-11-05T09:48:51.050Z,11.50
2022-11-05T09:51:24.070Z,11.05
2022-11-05T09:53:54.077Z,8.05
2022-11-05T09:56:27.563Z,7.53
2022-11-05T09:59:02.838Z,5.80
2022-11-05T10:01:37.331Z,6.43
2022-11-05T10:04:13.984Z,6.00
2022-11-05T10:06:48.953Z,4.65
2022-11-05T10:09:25.107Z,4.85
2022-11-05T10:11:59.266Z,3.90
2022-11-05T10:14:32.289Z,4.30
2022-11-05T10:17:13.800Z,4.50
2022-11-05T10:19:48.645Z,4.13
2022-11-05T10:22:20.135Z,4.05
2022-11-05T10:24:51.608Z,3.40
2022-11-05T10:27:24.444Z,5.05
2022-11-05T10:29:54.073Z,4.22
2022-11-05T10:32:29.354Z,4.15
2022-11-05T10:35:00.908Z,4.50
2022-11-05T10:37:31.972Z,3.90
2022-11-05T10:40:01.916Z,3.38
2022-11-05T10:42:47.943Z,4.32
2022-11-05T10:45:26.684Z,3.72
2022-11-05T10:48:15.382Z,3.20
2022-11-05T10:50:46.534Z,3.58
2022-11-05T10:53:18.041Z,3.80
2022-11-05T10:55:49.763Z,4.10
2022-11-05T10:58:25.565Z,3.92
2022-11-05T11:01:11.773Z,2.55
2022-11-05T11:03:45.479Z,2.60
2022-11-05T11:06:21.596Z,2.50
2022-11-05T11:08:52.491Z,3.53
2022-11-05T11:11:33.630Z,2.00
2022-11-05T11:14:06.753Z,2.17
2022-11-05T11:16:38.958Z,2.58
2022-11-05T11:19:28.051Z,2.40
2022-11-05T11:22:22.687Z,2.22
2022-11-05T11:24:54.232Z,2.33
2022-11-05T11:27:26.075Z,2.22
2022-11-05T11:30:00.664Z,2.17
2022-11-05T11:32:38.640Z,1.73
2022-11-05T11:35:25.047Z,2.35
2022-11-05T11:37:56.590Z,1.92
2022-11-05T11:40:31.743Z,3.17
2022-11-05T11:43:05.351Z,2.22
2022-11-05T11:45:39.610Z,2.20
2022-11-05T11:48:16.985Z,1.40
2022-11-05T11:50:49.358Z,2.53
2022-11-05T11:53:30.647Z,2.85
2022-11-05T11:56:16.808Z,1.50
2022-11-05T11:58:48.937Z,3.15
2022-11-05T12:01:42.603Z,2.40
2022-11-05T12:04:25.398Z,1.73
2022-11-05T12:07:14.478Z,2.22
2022-11-05T12:10:10.852Z,1.95
2022-11-05T12:12:48.896Z,1.88
2022-11-05T12:15:31.235Z,1.85
2022-11-05T12:18:03.789Z,1.67
2022-11-05T12:20:51.694Z,2.08
2022-11-05T12:23:54.675Z,2.65
2022-11-05T12:26:34.809Z,2.25
2022-11-05T12:29:35.739Z,2.63
2022-11-05T12:32:38.460Z,2.78
2022-11-05T12:35:20.533Z,3.05
2022-11-05T12:37:56.546Z,2.70
2022-11-05T12:40:44.719Z,2.17
2022-11-05T12:43:21.055Z,2.38
2022-11-05T12:46:03.917Z,2.60
2022-11-05T12:48:47.506Z,2.50
2022-11-05T12:51:33.973Z,3.42
2022-11-05T12:54:15.483Z,3.08
2022-11-05T12:56:50.874Z,3.50
2022-11-05T12:59:26.095Z,2.45
2022-11-05T13:01:59.536Z,2.78
2022-11-05T13:04:37.006Z,3.58
2022-11-05T13:07:10.741Z,3.10
2022-11-05T13:09:44.770Z,3.05
2022-11-05T13:12:19.345Z,3.38
2022-11-05T13:14:54.051Z,3.75
2022-11-05T13:17:27.082Z,3.45
2022-11-05T13:20:03.288Z,1.88
2022-11-05T13:22:39.639Z,1.90
2022-11-05T13:25:18.280Z,2.75
2022-11-05T13:27:57.955Z,2.97
2022-11-05T13:30:31.430Z,2.13
2022-11-05T13:33:05.554Z,2.20
2022-11-05T13:35:45.233Z,2.40
2022-11-05T13:38:45.253Z,2.67
2022-11-05T13:41:27.870Z,3.38
2022-11-05T13:44:31.517Z,3.30
2022-11-05T13:47:33.099Z,2.95
2022-11-05T13:50:34.419Z,3.53
2022-11-05T13:53:33.059Z,3.35
2022-11-05T13:56:12.253Z,2.67
2022-11-05T13:59:16.543Z,4.40
2022-11-05T14:01:50.258Z,2.55
2022-11-05T14:04:29.186Z,3.28
2022-11-05T14:07:09.245Z,3.35
2022-11-05T14:09:39.593Z,4.05
2022-11-05T14:12:21.163Z,5.60
2022-11-05T14:14:59.110Z,5.88
2022-11-05T14:17:33.591Z,6.38
2022-11-05T14:20:45.983Z,5.22
2022-11-05T14:23:41.125Z,4.90
2022-11-05T14:26:22.266Z,6.47
2022-11-05T14:29:31.907Z,5.90
2022-11-05T14:32:09.908Z,5.55
2022-11-05T14:34:45.837Z,6.22
2022-11-05T14:37:29.636Z,4.53
2022-11-05T14:40:05.879Z,6.38
2022-11-05T14:42:36.876Z,6.35
2022-11-05T14:47:56.977Z,7.50
2022-11-05T14:50:37.913Z,7.25
2022-11-05T14:53:27.876Z,7.38
2022-11-05T14:56:03.577Z,7.70
2022-11-05T14:58:35.670Z,8.88
2022-11-05T15:01:07.730Z,6.88
2022-11-05T15:04:18.917Z,8.40
2022-11-05T15:07:13.831Z,9.02
2022-11-05T15:09:45.837Z,9.35
2022-11-05T15:12:21.095Z,10.52
2022-11-05T15:14:58.664Z,10.30
2022-11-05T15:17:31.786Z,12.50
2022-11-05T15:20:09.590Z,12.23
2022-11-05T15:22:44.794Z,11.38
2022-11-05T15:25:19.874Z,13.18
2022-11-05T15:28:01.963Z,13.73
2022-11-05T15:30:31.506Z,10.63
2022-11-05T15:33:12.158Z,10.80
2022-11-05T15:35:43.013Z,8.77
2022-11-05T15:38:29.055Z,8.73
2022-11-05T15:41:03.552Z,8.52
2022-11-05T15:43:33.859Z,9.07
2022-11-05T15:46:08.853Z,10.27
2022-11-05T15:48:38.376Z,9.60
2022-11-05T15:51:10.251Z,9.45
2022-11-05T15:56:52.219Z,14.07
2022-11-05T15:59:23.448Z,16.80
2022-11-05T16:01:56.629Z,14.23
2022-11-05T16:04:30.032Z,15.18
2022-11-05T16:07:07.734Z,13.25
2022-11-05T16:09:40.709Z,11.18
2022-11-05T16:12:31.930Z,10.07
2022-11-05T16:15:05.796Z,12.40
2022-11-05T16:17:48.785Z,12.10
2022-11-05T16:20:28.229Z,12.93
2022-11-05T16:23:00.739Z,12.70
2022-11-05T16:25:36.793Z,13.35
2022-11-05T16:28:07.676Z,14.93
2022-11-05T16:30:37.431Z,13.20
2022-11-05T16:33:08.663Z,13.88
2022-11-05T16:35:48.235Z,13.55
2022-11-05T16:38:20.299Z,12.80
2022-11-05T16:40:49.808Z,12.15
2022-11-05T16:43:21.709Z,12.38
2022-11-05T16:45:54.074Z,12.13
2022-11-05T16:48:23.160Z,12.88
2022-11-05T16:50:53.238Z,11.93
2022-11-05T16:53:23.756Z,14.38
2022-11-05T16:55:53.219Z,15.10
2022-11-05T16:58:25.155Z,15.55
2022-11-05T17:01:00.607Z,16.70
2022-11-05T17:03:30.212Z,16.02
2022-11-05T17:05:59.679Z,14.57
2022-11-05T17:08:30.095Z,16.38
2022-11-05T17:10:59.498Z,14.27
2022-11-05T17:13:28.661Z,14.82
2022-11-05T17:18:27.114Z,13.25
2022-11-05T17:23:28.745Z,14.18
2022-11-05T17:26:03.128Z,15.77
2022-11-05T17:28:32.937Z,12.43
2022-11-05T17:31:03.559Z,13.95
2022-11-05T17:33:32.922Z,13.85
2022-11-05T17:36:07.962Z,13.18
2022-11-05T17:38:37.247Z,13.52
2022-11-05T17:41:14.190Z,13.00
2022-11-05T17:43:43.574Z,13.75
2022-11-05T17:46:19.447Z,16.75
2022-11-05T17:48:49.461Z,18.45
2022-11-05T17:51:20.887Z,17.13
2022-11-05T17:53:50.644Z,17.38
2022-11-05T17:56:33.478Z,16.73
2022-11-05T17:59:04.855Z,16.88
2022-11-05T18:01:36.186Z,17.42
2022-11-05T18:04:08.873Z,17.13
2022-11-05T18:06:39.580Z,16.10
2022-11-05T18:09:09.709Z,15.35
2022-11-05T18:11:41.819Z,15.70
2022-11-05T18:14:11.227Z,14.73
2022-11-05T18:19:09.435Z,13.47
2022-11-05T18:21:38.939Z,13.60
2022-11-05T18:24:08.858Z,12.45
2022-11-05T18:26:39.555Z,12.73
2022-11-05T18:29:08.639Z,11.25
2022-11-05T18:31:38.044Z,9.70
2022-11-05T18:34:07.374Z,9.57
2022-11-05T18:36:36.583Z,7.70
2022-11-05T18:39:07.777Z,9.07
2022-11-05T18:41:37.059Z,8.80
2022-11-05T18:44:07.853Z,6.82
2022-11-05T18:49:28.444Z,5.65
2022-11-05T18:51:57.862Z,8.85
2022-11-05T18:54:26.910Z,7.90
2022-11-05T18:56:56.431Z,7.28
2022-11-05T18:59:37.584Z,9.52
2022-11-05T19:02:09.291Z,19.00
2022-11-05T19:04:38.975Z,19.38
2022-11-05T19:09:41.347Z,18.25
2022-11-05T19:12:11.820Z,18.05
2022-11-05T19:14:42.913Z,13.45
2022-11-05T19:17:15.649Z,14.93
2022-11-05T19:19:45.425Z,13.02
2022-11-05T19:22:15.406Z,12.45
2022-11-05T19:24:44.345Z,11.95
2022-11-05T19:27:13.834Z,11.25
2022-11-05T19:29:44.238Z,10.50
2022-11-05T19:32:13.699Z,10.80
2022-11-05T19:34:42.760Z,9.85
2022-11-05T19:37:15.045Z,8.55
2022-11-05T19:39:44.454Z,9.15
2022-11-05T19:42:13.737Z,7.68
2022-11-05T19:44:44.313Z,7.65
2022-11-05T19:47:13.564Z,8.77
2022-11-05T19:49:42.474Z,7.10
2022-11-05T19:52:12.061Z,8.23
2022-11-05T19:54:42.929Z,8.05
2022-11-05T19:57:13.971Z,9.00
2022-11-05T19:59:44.873Z,10.45
2022-11-05T20:02:17.137Z,12.38
2022-11-05T20:04:47.036Z,9.52
2022-11-05T20:07:19.290Z,9.07
2022-11-05T20:09:50.108Z,9.27
2022-11-05T20:12:21.965Z,7.10
2022-11-05T20:14:54.077Z,7.68
2022-11-05T20:17:25.707Z,6.45
2022-11-05T20:19:55.910Z,6.53
2022-11-05T20:22:25.655Z,7.78
2022-11-05T20:24:54.583Z,7.10
2022-11-05T20:27:24.302Z,11.93
2022-11-05T20:29:54.630Z,9.43
2022-11-05T20:32:24.231Z,11.27
2022-11-05T20:34:53.233Z,10.23
2022-11-05T20:37:24.294Z,8.98
2022-11-05T20:39:53.489Z,10.15
2022-11-05T20:42:24.034Z,9.38
2022-11-05T20:44:55.140Z,7.40
2022-11-05T20:47:25.935Z,9.32
2022-11-05T20:49:55.493Z,11.50
2022-11-05T20:52:25.893Z,11.20
2022-11-05T20:54:55.824Z,17.00
2022-11-05T20:57:25.607Z,19.70
2022-11-05T20:59:56.112Z,17.20
2022-11-05T21:02:25.723Z,20.30
2022-11-05T21:04:54.817Z,20.25
2022-11-05T21:07:24.914Z,20.67
2022-11-05T21:09:53.917Z,19.65
2022-11-05T21:12:23.802Z,20.52
2022-11-05T21:14:53.092Z,14.98
2022-11-05T21:17:23.713Z,11.57
2022-11-05T21:19:53.263Z,13.23
2022-11-05T21:24:51.603Z,16.60
2022-11-05T21:27:21.010Z,9.95
2022-11-05T21:29:50.605Z,10.52
2022-11-05T21:32:20.403Z,8.68
2022-11-05T21:34:50.989Z,9.38
2022-11-05T21:37:20.529Z,10.60
2022-11-05T21:39:49.595Z,9.18
2022-11-05T21:42:19.123Z,7.53
2022-11-05T21:44:48.233Z,9.00
2022-11-05T21:47:17.747Z,6.82
2022-11-05T21:49:47.158Z,7.38
2022-11-05T21:52:35.133Z,7.15
2022-11-05T21:55:22.155Z,8.77
2022-11-05T21:58:08.638Z,7.57
2022-11-05T22:00:38.251Z,9.27
2022-11-05T22:05:38.059Z,8.98
2022-11-05T22:08:09.387Z,9.98
2022-11-05T22:10:38.660Z,9.00
2022-11-05T22:13:07.933Z,7.82
2022-11-05T22:15:37.127Z,9.98
2022-11-05T22:18:06.566Z,10.23
2022-11-05T22:20:38.573Z,8.98
2022-11-05T22:23:11.408Z,8.18
2022-11-05T22:25:40.599Z,7.68
2022-11-05T22:28:10.225Z,8.20
2022-11-05T22:30:39.476Z,8.77
2022-11-05T22:33:08.663Z,7.10
2022-11-05T22:35:39.936Z,6.95
2022-11-05T22:38:12.888Z,7.20
2022-11-05T22:40:42.266Z,7.70
2022-11-05T22:43:11.486Z,7.03
2022-11-05T22:45:40.606Z,6.07
2022-11-05T22:48:10.157Z,6.85
2022-11-05T22:50:39.560Z,7.65
2022-11-05T22:53:10.287Z,7.18
2022-11-05T22:55:41.158Z,7.43
2022-11-05T22:58:11.288Z,6.43
2022-11-05T23:00:40.490Z,6.15
2022-11-05T23:03:09.922Z,5.50
2022-11-05T23:05:39.432Z,6.18
2022-11-05T23:08:28.775Z,7.00
2022-11-05T23:11:23.991Z,6.72
2022-11-05T23:13:53.373Z,6.82
2022-11-05T23:16:39.834Z,6.65
2022-11-05T23:19:28.349Z,6.80
2022-11-05T23:22:14.650Z,6.38
2022-11-05T23:24:45.448Z,6.75
2022-11-05T23:27:14.544Z,6.18
2022-11-05T23:29:43.769Z,5.72
2022-11-05T23:32:27.189Z,6.43
2022-11-05T23:34:57.799Z,5.43
2022-11-05T23:37:47.820Z,5.88
2022-11-05T23:40:20.091Z,6.72
2022-11-05T23:43:06.974Z,6.38
2022-11-05T23:45:56.344Z,6.35
2022-11-05T23:48:28.516Z,5.78
2022-11-05T23:51:00.911Z,5.70
2022-11-05T23:53:31.161Z,6.95
2022-11-05T23:56:05.404Z,7.30
2022-11-05T23:58:34.894Z,4.60
